createdAt,value
2022-09-29T00:00:39.950Z,1.08
2022-09-29T00:03:11.100Z,1.23
2022-09-29T00:05:41.635Z,0.85
2022-09-29T00:10:45.279Z,1.15
2022-09-29T00:13:17.251Z,1.08
2022-09-29T00:15:56.714Z,1.23
2022-09-29T00:18:27.748Z,1.42
2022-09-29T00:21:02.890Z,1.02
2022-09-29T00:23:35.521Z,1.15
2022-09-29T00:26:11.748Z,1.25
2022-09-29T00:28:47.198Z,0.85
2022-09-29T00:31:18.156Z,0.65
2022-09-29T00:33:48.887Z,1.02
2022-09-29T00:36:21.027Z,1.33
2022-09-29T00:38:54.174Z,1.13
2022-09-29T00:41:31.126Z,1.70
2022-09-29T00:44:08.805Z,1.35
2022-09-29T00:46:57.248Z,1.42
2022-09-29T00:49:49.350Z,1.05
2022-09-29T00:52:43.608Z,1.35
2022-09-29T00:55:40.741Z,1.10
2022-09-29T00:58:24.251Z,1.15
2022-09-29T01:00:56.365Z,1.20
2022-09-29T01:03:35.034Z,0.90
2022-09-29T01:06:16.194Z,0.90
2022-09-29T01:08:59.641Z,1.45
2022-09-29T01:11:31.379Z,1.33
2022-09-29T01:14:06.084Z,1.50
2022-09-29T01:16:39.051Z,2.13
2022-09-29T01:19:15.663Z,0.80
2022-09-29T01:21:55.907Z,1.67
2022-09-29T01:24:53.929Z,1.35
2022-09-29T01:27:54.255Z,1.90
2022-09-29T01:30:50.851Z,1.52
2022-09-29T01:33:30.257Z,1.23
2022-09-29T01:36:26.024Z,1.70
2022-09-29T01:39:08.573Z,1.25
2022-09-29T01:41:45.565Z,1.08
2022-09-29T01:44:44.745Z,1.42
2022-09-29T01:47:32.793Z,1.88
2022-09-29T01:50:20.830Z,1.60
2022-09-29T01:52:57.396Z,1.50
2022-09-29T01:55:32.524Z,1.05
2022-09-29T01:58:12.088Z,1.23
2022-09-29T02:00:50.809Z,1.80
2022-09-29T02:03:36.565Z,1.10
2022-09-29T02:06:14.200Z,0.90
2022-09-29T02:09:06.848Z,1.65
2022-09-29T02:11:40.250Z,0.70
2022-09-29T02:14:16.073Z,1.30
2022-09-29T02:16:52.392Z,1.60
2022-09-29T02:19:27.334Z,1.25
2022-09-29T02:21:58.067Z,1.35
2022-09-29T02:24:28.622Z,1.40
2022-09-29T02:26:59.389Z,2.42
2022-09-29T02:29:29.823Z,4.45
2022-09-29T02:34:37.898Z,3.17
2022-09-29T02:37:35.575Z,2.58
2022-09-29T02:40:24.305Z,2.10
2022-09-29T02:43:01.157Z,2.15
2022-09-29T02:45:51.488Z,1.95
2022-09-29T02:48:24.696Z,1.77
2022-09-29T02:51:07.322Z,1.42
2022-09-29T02:53:50.532Z,1.52
2022-09-29T02:56:36.144Z,1.42
2022-09-29T02:59:15.839Z,1.95
2022-09-29T03:01:52.623Z,2.47
2022-09-29T03:06:54.708Z,2.13
2022-09-29T03:09:25.195Z,1.98
2022-09-29T03:11:55.636Z,1.55
2022-09-29T03:16:55.667Z,1.58
2022-09-29T03:21:56.225Z,1.63
2022-09-29T03:24:26.679Z,1.35
2022-09-29T03:29:26.783Z,1.20
2022-09-29T03:31:57.274Z,1.70
2022-09-29T03:36:59.273Z,1.77
2022-09-29T03:39:30.309Z,1.10
2022-09-29T03:42:00.642Z,1.60
2022-09-29T03:44:31.196Z,1.70
2022-09-29T03:47:02.237Z,2.08
2022-09-29T03:49:32.654Z,1.13
2022-09-29T03:52:03.508Z,1.65
2022-09-29T03:54:33.957Z,0.77
2022-09-29T03:57:04.465Z,1.15
2022-09-29T04:02:04.744Z,1.70
2022-09-29T04:07:04.584Z,1.40
2022-09-29T04:09:35.053Z,1.70
2022-09-29T04:14:35.248Z,1.20
2022-09-29T04:17:05.635Z,1.30
2022-09-29T04:19:36.031Z,1.20
2022-09-29T04:22:06.404Z,1.40
2022-09-29T04:24:36.861Z,1.45
2022-09-29T04:29:36.800Z,1.52
2022-09-29T04:34:38.757Z,2.47
2022-09-29T04:37:14.226Z,1.25
2022-09-29T04:39:44.718Z,1.80
2022-09-29T04:44:44.586Z,1.80
2022-09-29T04:47:15.074Z,2.30
2022-09-29T04:52:15.597Z,1.27
2022-09-29T04:54:46.026Z,2.00
2022-09-29T04:57:16.335Z,2.17
2022-09-29T05:02:16.694Z,1.80
2022-09-29T05:04:48.901Z,2.08
2022-09-29T05:07:19.215Z,2.05
2022-09-29T05:09:49.668Z,1.33
2022-09-29T05:12:20.132Z,1.50
2022-09-29T05:14:50.599Z,1.30
2022-09-29T05:17:20.906Z,2.10
2022-09-29T05:22:25.598Z,1.33
2022-09-29T05:24:56.387Z,1.33
2022-09-29T05:27:26.767Z,1.20
2022-09-29T05:29:57.208Z,2.17
2022-09-29T05:32:27.624Z,1.33
2022-09-29T05:34:59.061Z,1.02
2022-09-29T05:37:29.366Z,1.40
2022-09-29T05:39:59.899Z,1.10
2022-09-29T05:44:59.853Z,1.38
2022-09-29T05:47:30.273Z,1.35
2022-09-29T05:50:00.718Z,0.90
2022-09-29T05:52:31.090Z,1.35
2022-09-29T05:55:01.632Z,1.23
2022-09-29T05:57:31.789Z,1.27
2022-09-29T06:00:02.104Z,1.00
2022-09-29T06:02:41.167Z,1.27
2022-09-29T06:05:11.950Z,1.13
2022-09-29T06:07:42.428Z,1.10
2022-09-29T06:10:12.967Z,1.10
2022-09-29T06:15:14.177Z,0.95
2022-09-29T06:17:44.558Z,1.35
2022-09-29T06:20:15.010Z,0.98
2022-09-29T06:22:45.336Z,1.00
2022-09-29T06:25:15.865Z,0.85
2022-09-29T06:27:46.189Z,1.67
2022-09-29T06:30:17.097Z,1.27
2022-09-29T06:32:47.729Z,1.35
2022-09-29T06:35:36.344Z,1.80
2022-09-29T06:38:07.194Z,1.20
2022-09-29T06:40:37.780Z,1.48
2022-09-29T06:43:08.163Z,1.00
2022-09-29T06:45:38.596Z,0.90
2022-09-29T06:48:11.138Z,1.38
2022-09-29T06:50:41.608Z,1.17
2022-09-29T06:53:11.777Z,1.77
2022-09-29T06:55:41.928Z,0.82
2022-09-29T06:58:12.280Z,1.38
2022-09-29T07:00:44.838Z,0.77
2022-09-29T07:03:16.499Z,0.90
2022-09-29T07:08:33.009Z,0.82
2022-09-29T07:11:07.444Z,0.52
2022-09-29T07:13:38.097Z,2.03
2022-09-29T07:16:16.342Z,0.63
2022-09-29T07:18:47.893Z,0.77
2022-09-29T07:21:19.199Z,0.85
2022-09-29T07:23:50.172Z,1.83
2022-09-29T07:26:21.807Z,0.73
2022-09-29T07:28:52.204Z,1.88
2022-09-29T07:31:49.490Z,0.80
2022-09-29T07:34:23.644Z,0.90
2022-09-29T07:36:54.607Z,0.75
2022-09-29T07:39:24.800Z,1.05
2022-09-29T07:41:56.399Z,1.02
2022-09-29T07:44:47.967Z,0.98
2022-09-29T07:47:22.052Z,1.05
2022-09-29T07:49:53.328Z,1.52
2022-09-29T07:52:24.172Z,1.38
2022-09-29T07:54:54.592Z,1.73
2022-09-29T07:57:24.882Z,1.23
2022-09-29T07:59:56.036Z,2.05
2022-09-29T08:02:27.642Z,2.40
2022-09-29T08:05:02.230Z,2.45
2022-09-29T08:07:34.752Z,2.15
2022-09-29T08:10:16.234Z,2.40
2022-09-29T08:12:47.670Z,2.08
2022-09-29T08:17:47.928Z,2.80
2022-09-29T08:20:18.416Z,2.80
2022-09-29T08:22:49.552Z,2.80
2022-09-29T08:25:20.223Z,3.33
2022-09-29T08:27:55.683Z,2.95
2022-09-29T08:30:26.266Z,3.05
2022-09-29T08:32:57.057Z,3.90
2022-09-29T08:35:27.413Z,5.32
2022-09-29T08:38:00.666Z,5.55
2022-09-29T08:40:32.978Z,5.15
2022-09-29T08:43:34.423Z,4.97
2022-09-29T08:46:33.635Z,3.83
2022-09-29T08:49:28.969Z,5.28
2022-09-29T08:52:26.603Z,5.25
2022-09-29T08:55:21.687Z,3.85
2022-09-29T08:58:00.105Z,2.83
2022-09-29T09:01:17.770Z,2.72
2022-09-29T09:04:24.604Z,1.85
2022-09-29T09:07:39.107Z,1.17
2022-09-29T09:10:33.907Z,1.60
2022-09-29T09:13:19.331Z,1.83
2022-09-29T09:16:14.638Z,1.42
2022-09-29T09:19:32.613Z,1.58
2022-09-29T09:22:05.223Z,1.13
2022-09-29T09:24:41.623Z,0.95
2022-09-29T09:27:18.493Z,0.77
2022-09-29T09:29:51.316Z,1.02
2022-09-29T09:32:29.440Z,1.10
2022-09-29T09:35:22.800Z,1.17
2022-09-29T09:37:56.895Z,1.00
2022-09-29T09:40:32.849Z,1.10
2022-09-29T09:43:12.088Z,0.85
2022-09-29T09:45:59.320Z,1.45
2022-09-29T09:48:34.991Z,3.28
2022-09-29T09:51:36.433Z,1.90
2022-09-29T09:54:32.835Z,3.03
2022-09-29T09:57:40.219Z,3.83
2022-09-29T10:00:17.199Z,2.70
2022-09-29T10:02:59.588Z,2.95
2022-09-29T10:05:41.270Z,2.85
2022-09-29T10:08:30.750Z,2.05
2022-09-29T10:11:01.705Z,2.88
2022-09-29T10:13:33.259Z,2.72
2022-09-29T10:16:25.217Z,1.67
2022-09-29T10:18:55.855Z,2.63
2022-09-29T10:24:05.575Z,2.25
2022-09-29T10:26:45.452Z,2.25
2022-09-29T10:29:28.299Z,2.15
2022-09-29T10:32:23.598Z,1.52
2022-09-29T10:35:03.357Z,1.73
2022-09-29T10:37:40.052Z,1.00
2022-09-29T10:40:10.454Z,1.40
2022-09-29T10:42:48.376Z,1.13
2022-09-29T10:45:20.613Z,1.73
2022-09-29T10:48:14.806Z,2.20
2022-09-29T10:51:03.153Z,0.65
2022-09-29T10:53:39.386Z,1.38
2022-09-29T10:56:31.277Z,1.52
2022-09-29T10:59:05.991Z,0.70
2022-09-29T11:01:47.106Z,1.20
2022-09-29T11:04:35.154Z,1.10
2022-09-29T11:07:14.000Z,0.93
2022-09-29T11:09:46.197Z,1.25
2022-09-29T11:12:40.049Z,1.02
2022-09-29T11:15:29.891Z,0.77
2022-09-29T11:18:00.364Z,1.23
2022-09-29T11:20:35.993Z,1.10
2022-09-29T11:23:41.126Z,0.90
2022-09-29T11:26:47.567Z,1.23
2022-09-29T11:29:25.859Z,1.27
2022-09-29T11:32:28.268Z,0.98
2022-09-29T11:35:17.543Z,1.48
2022-09-29T11:38:10.814Z,1.05
2022-09-29T11:41:12.484Z,0.88
2022-09-29T11:43:56.475Z,0.52
2022-09-29T11:47:02.128Z,0.60
2022-09-29T11:50:11.655Z,0.85
2022-09-29T11:53:15.836Z,0.90
2022-09-29T11:56:36.966Z,1.52
2022-09-29T11:59:34.740Z,1.48
2022-09-29T12:02:36.726Z,0.80
2022-09-29T12:05:24.714Z,0.63
2022-09-29T12:08:19.476Z,0.65
2022-09-29T12:11:13.114Z,1.20
2022-09-29T12:14:07.124Z,1.20
2022-09-29T12:16:41.447Z,1.25
2022-09-29T12:19:17.741Z,1.08
2022-09-29T12:21:53.727Z,1.27
2022-09-29T12:24:52.910Z,0.70
2022-09-29T12:27:33.733Z,0.73
2022-09-29T12:30:21.857Z,0.85
2022-09-29T12:33:25.500Z,0.75
2022-09-29T12:36:38.435Z,0.52
2022-09-29T12:39:34.602Z,0.60
2022-09-29T12:42:33.677Z,1.27
2022-09-29T12:45:34.266Z,0.75
2022-09-29T12:51:04.105Z,0.70
2022-09-29T12:54:03.217Z,0.68
2022-09-29T12:56:41.480Z,0.17
2022-09-29T12:59:16.004Z,1.13
2022-09-29T13:01:49.119Z,0.90
2022-09-29T13:04:25.664Z,1.58
2022-09-29T13:09:55.972Z,0.65
2022-09-29T13:12:35.595Z,0.63
2022-09-29T13:15:46.328Z,0.45
2022-09-29T13:18:54.004Z,0.90
2022-09-29T13:22:10.910Z,0.75
2022-09-29T13:25:08.397Z,0.20
2022-09-29T13:27:43.674Z,0.65
2022-09-29T13:30:14.716Z,0.38
2022-09-29T13:32:53.145Z,0.60
2022-09-29T13:35:25.842Z,0.75
2022-09-29T13:38:03.660Z,0.68
2022-09-29T13:40:35.374Z,0.60
2022-09-29T13:43:09.396Z,1.00
2022-09-29T13:45:45.923Z,1.30
2022-09-29T13:48:19.397Z,0.60
2022-09-29T13:50:52.458Z,0.75
2022-09-29T13:53:35.662Z,0.90
2022-09-29T13:56:06.864Z,1.27
2022-09-29T13:58:43.078Z,0.50
2022-09-29T14:01:30.650Z,0.40
2022-09-29T14:04:20.986Z,0.50
2022-09-29T14:06:51.877Z,0.40
2022-09-29T14:09:24.618Z,0.60
2022-09-29T14:11:57.329Z,1.48
2022-09-29T14:14:41.482Z,0.70
2022-09-29T14:17:33.430Z,0.88
2022-09-29T14:20:16.752Z,0.65
2022-09-29T14:22:50.646Z,0.68
2022-09-29T14:25:21.351Z,0.75
2022-09-29T14:28:17.308Z,0.70
2022-09-29T14:30:57.078Z,0.57
2022-09-29T14:33:43.099Z,0.70
2022-09-29T14:39:33.334Z,0.85
2022-09-29T14:42:03.897Z,0.57
2022-09-29T14:44:56.483Z,0.68
2022-09-29T14:48:18.667Z,0.50
2022-09-29T14:51:10.629Z,0.73
2022-09-29T14:53:59.951Z,0.60
2022-09-29T14:56:39.659Z,0.55
2022-09-29T14:59:20.950Z,0.35
2022-09-29T15:02:18.317Z,0.60
2022-09-29T15:04:50.078Z,0.70
2022-09-29T15:07:23.631Z,0.98
2022-09-29T15:09:55.221Z,0.57
2022-09-29T15:12:32.787Z,0.40
2022-09-29T15:15:03.632Z,0.60
2022-09-29T15:17:56.172Z,1.00
2022-09-29T15:20:35.792Z,0.60
2022-09-29T15:23:27.599Z,0.32
2022-09-29T15:26:01.746Z,0.90
2022-09-29T15:28:42.868Z,0.52
2022-09-29T15:31:23.395Z,0.15
2022-09-29T15:33:53.839Z,1.00
2022-09-29T15:36:26.680Z,0.75
2022-09-29T15:39:21.487Z,0.65
2022-09-29T15:42:12.876Z,0.30
2022-09-29T15:44:49.011Z,0.20
2022-09-29T15:47:30.076Z,0.50
2022-09-29T15:50:00.434Z,0.55
2022-09-29T15:52:31.838Z,0.82
2022-09-29T15:55:02.394Z,0.55
2022-09-29T15:57:52.531Z,0.50
2022-09-29T16:00:28.486Z,0.55
2022-09-29T16:03:04.409Z,0.70
2022-09-29T16:05:56.125Z,0.70
2022-09-29T16:08:30.219Z,0.60
2022-09-29T16:11:18.182Z,0.82
2022-09-29T16:13:54.208Z,0.85
2022-09-29T16:16:32.029Z,0.47
2022-09-29T16:19:08.746Z,0.47
2022-09-29T16:21:40.350Z,0.60
2022-09-29T16:24:20.604Z,0.68
2022-09-29T16:26:55.257Z,0.35
2022-09-29T16:29:31.160Z,0.38
2022-09-29T16:32:22.876Z,0.63
2022-09-29T16:34:53.379Z,0.70
2022-09-29T16:37:23.904Z,0.40
2022-09-29T16:39:54.444Z,0.70
2022-09-29T16:42:28.392Z,0.73
2022-09-29T16:45:00.286Z,0.80
2022-09-29T16:47:33.909Z,0.70
2022-09-29T16:50:15.643Z,0.40
2022-09-29T16:52:52.117Z,0.88
2022-09-29T16:55:34.794Z,0.80
2022-09-29T16:58:06.993Z,0.60
2022-09-29T17:00:40.716Z,0.80
2022-09-29T17:03:12.401Z,0.82
2022-09-29T17:05:48.763Z,0.65
2022-09-29T17:08:30.809Z,0.77
2022-09-29T17:11:01.210Z,0.45
2022-09-29T17:13:36.752Z,0.55
2022-09-29T17:16:11.420Z,0.68
2022-09-29T17:18:41.893Z,0.80
2022-09-29T17:21:13.290Z,0.82
2022-09-29T17:23:43.830Z,0.77
2022-09-29T17:26:42.591Z,0.80
2022-09-29T17:29:13.443Z,0.93
2022-09-29T17:31:43.844Z,0.70
2022-09-29T17:34:14.226Z,0.55
2022-09-29T17:36:45.240Z,0.50
2022-09-29T17:39:15.759Z,0.80
2022-09-29T17:41:47.087Z,0.77
2022-09-29T17:44:17.804Z,0.60
2022-09-29T17:46:48.586Z,0.65
2022-09-29T17:49:20.225Z,0.60
2022-09-29T17:51:50.682Z,0.63
2022-09-29T17:54:29.219Z,0.77
2022-09-29T17:57:02.503Z,0.55
2022-09-29T17:59:36.169Z,0.63
2022-09-29T18:02:14.350Z,0.57
2022-09-29T18:04:47.105Z,0.93
2022-09-29T18:07:17.967Z,0.70
2022-09-29T18:09:48.787Z,0.55
2022-09-29T18:12:19.135Z,0.30
2022-09-29T18:14:49.695Z,0.43
2022-09-29T18:17:20.181Z,0.68
2022-09-29T18:19:50.499Z,0.80
2022-09-29T18:24:50.890Z,0.85
2022-09-29T18:27:21.222Z,1.38
2022-09-29T18:32:21.278Z,0.68
2022-09-29T18:34:51.741Z,0.98
2022-09-29T18:37:21.950Z,0.88
2022-09-29T18:39:52.401Z,0.95
2022-09-29T18:42:23.712Z,0.88
2022-09-29T18:44:54.164Z,0.70
2022-09-29T18:47:24.497Z,0.93
2022-09-29T18:49:55.107Z,0.68
2022-09-29T18:52:25.688Z,0.95
2022-09-29T18:54:56.107Z,0.93
2022-09-29T18:57:26.722Z,0.70
2022-09-29T18:59:57.181Z,0.80
2022-09-29T19:02:27.643Z,0.82
2022-09-29T19:04:58.914Z,0.95
2022-09-29T19:07:29.409Z,0.70
2022-09-29T19:10:00.111Z,0.60
2022-09-29T19:12:31.325Z,0.88
2022-09-29T19:15:02.689Z,0.68
2022-09-29T19:17:33.668Z,0.80
2022-09-29T19:20:04.370Z,1.85
2022-09-29T19:22:38.485Z,1.10
2022-09-29T19:25:10.066Z,1.13
2022-09-29T19:27:41.840Z,0.73
2022-09-29T19:30:13.740Z,0.68
2022-09-29T19:32:44.910Z,1.52
2022-09-29T19:35:20.052Z,0.70
2022-09-29T19:37:51.058Z,0.75
2022-09-29T19:40:25.219Z,1.13
2022-09-29T19:42:56.288Z,0.70
2022-09-29T19:45:27.638Z,0.93
2022-09-29T19:47:58.686Z,0.68
2022-09-29T19:50:47.100Z,0.82
2022-09-29T19:53:17.727Z,0.68
2022-09-29T19:55:48.752Z,0.85
2022-09-29T19:58:19.263Z,0.50
2022-09-29T20:00:49.778Z,0.88
2022-09-29T20:03:20.231Z,0.40
2022-09-29T20:05:51.002Z,1.05
2022-09-29T20:08:21.348Z,0.80
2022-09-29T20:10:51.824Z,0.50
2022-09-29T20:13:23.568Z,0.75
2022-09-29T20:15:54.722Z,0.70
2022-09-29T20:18:24.958Z,1.30
2022-09-29T20:20:55.854Z,0.73
2022-09-29T20:23:26.393Z,0.60
2022-09-29T20:26:03.763Z,0.95
2022-09-29T20:28:34.179Z,0.65
2022-09-29T20:31:06.410Z,0.65
2022-09-29T20:33:37.942Z,0.85
2022-09-29T20:36:08.408Z,1.33
2022-09-29T20:38:44.750Z,0.88
2022-09-29T20:41:16.423Z,1.25
2022-09-29T20:43:52.362Z,1.02
2022-09-29T20:46:27.214Z,1.08
2022-09-29T20:49:00.531Z,0.88
2022-09-29T20:51:33.035Z,0.80
2022-09-29T20:54:06.514Z,0.82
2022-09-29T20:56:45.985Z,0.75
2022-09-29T20:59:18.906Z,0.40
2022-09-29T21:01:50.100Z,0.70
2022-09-29T21:04:22.373Z,0.50
2022-09-29T21:06:54.688Z,0.88
2022-09-29T21:09:25.841Z,1.02
2022-09-29T21:11:57.220Z,0.55
2022-09-29T21:14:29.001Z,0.70
2022-09-29T21:17:00.543Z,1.20
2022-09-29T21:19:31.090Z,1.17
2022-09-29T21:22:01.790Z,1.08
2022-09-29T21:24:32.372Z,0.73
2022-09-29T21:27:02.864Z,0.60
2022-09-29T21:29:33.344Z,0.73
2022-09-29T21:32:03.935Z,1.55
2022-09-29T21:34:34.408Z,1.40
2022-09-29T21:37:05.055Z,1.63
2022-09-29T21:39:35.943Z,0.85
2022-09-29T21:42:06.644Z,1.17
2022-09-29T21:44:37.137Z,1.17
2022-09-29T21:47:08.136Z,0.63
2022-09-29T21:49:38.621Z,0.95
2022-09-29T21:52:09.589Z,1.05
2022-09-29T21:54:40.320Z,0.80
2022-09-29T21:57:11.374Z,1.27
2022-09-29T21:59:41.865Z,0.88
2022-09-29T22:02:12.544Z,0.70
2022-09-29T22:04:43.008Z,1.38
2022-09-29T22:07:14.196Z,0.63
2022-09-29T22:09:44.724Z,0.73
2022-09-29T22:12:15.259Z,0.88
2022-09-29T22:14:48.929Z,0.80
2022-09-29T22:17:19.785Z,0.73
2022-09-29T22:19:50.242Z,0.98
2022-09-29T22:22:20.869Z,0.70
2022-09-29T22:24:51.266Z,0.82
2022-09-29T22:27:22.224Z,0.77
2022-09-29T22:29:52.673Z,0.95
2022-09-29T22:34:53.822Z,0.60
2022-09-29T22:37:30.973Z,0.95
2022-09-29T22:40:01.920Z,1.35
2022-09-29T22:42:32.351Z,0.77
2022-09-29T22:47:32.638Z,1.50
2022-09-29T22:50:03.095Z,0.75
2022-09-29T22:52:33.674Z,0.80
2022-09-29T22:55:04.172Z,1.08
2022-09-29T22:57:36.587Z,0.93
2022-09-29T23:00:07.438Z,0.85
2022-09-29T23:02:37.884Z,0.70
2022-09-29T23:07:38.907Z,0.63
2022-09-29T23:10:11.254Z,0.43
2022-09-29T23:12:46.046Z,0.50
2022-09-29T23:15:16.817Z,0.70
2022-09-29T23:17:47.953Z,0.65
2022-09-29T23:20:18.556Z,0.75
2022-09-29T23:22:49.205Z,0.55
2022-09-29T23:25:19.716Z,0.60
2022-09-29T23:30:19.803Z,0.93
2022-09-29T23:32:50.770Z,0.85
2022-09-29T23:35:21.291Z,0.90
2022-09-29T23:38:10.042Z,0.60
2022-09-29T23:40:42.557Z,0.80
2022-09-29T23:43:13.212Z,0.60
2022-09-29T23:45:43.803Z,0.22
2022-09-29T23:48:15.733Z,0.70
2022-09-29T23:50:46.796Z,1.05
2022-09-29T23:53:17.256Z,0.60
2022-09-29T23:55:47.664Z,0.60
2022-09-29T23:58:18.351Z,0.50
